createdAt,value
2019-02-21T00:02:15.828Z,18.77
2019-02-21T00:04:44.566Z,19.03
2019-02-21T00:07:13.486Z,19.27
2019-02-21T00:09:42.194Z,21.57
2019-02-21T00:12:11.346Z,23.00
2019-02-21T00:14:40.090Z,22.93
2019-02-21T00:17:08.743Z,16.70
2019-02-21T00:19:38.660Z,20.40
2019-02-21T00:22:07.448Z,24.85
2019-02-21T00:24:36.466Z,22.67
2019-02-21T00:27:05.313Z,17.40
2019-02-21T00:29:34.038Z,21.83
2019-02-21T00:32:02.728Z,19.50
2019-02-21T00:34:31.506Z,24.00
2019-02-21T00:37:00.163Z,21.27
2019-02-21T00:39:28.855Z,22.87
2019-02-21T00:41:59.289Z,21.57
2019-02-21T00:44:30.633Z,23.73
2019-02-21T00:46:59.422Z,24.20
2019-02-21T00:49:28.195Z,28.33
2019-02-21T00:51:57.200Z,22.47
2019-02-21T00:54:25.989Z,22.93
2019-02-21T00:56:54.685Z,24.17
2019-02-21T00:59:23.532Z,21.40
2019-02-21T01:01:52.264Z,22.23
2019-02-21T01:04:21.069Z,23.27
2019-02-21T01:06:49.847Z,22.33
2019-02-21T01:09:18.611Z,25.77
2019-02-21T01:11:47.641Z,21.80
2019-02-21T01:14:17.452Z,24.60
2019-02-21T01:16:46.052Z,20.63
2019-02-21T01:19:14.899Z,22.37
2019-02-21T01:21:43.638Z,24.70
2019-02-21T01:24:12.424Z,23.67
2019-02-21T01:26:41.096Z,24.40
2019-02-21T01:29:09.578Z,26.93
2019-02-21T01:31:38.013Z,29.43
2019-02-21T01:34:06.715Z,24.27
2019-02-21T01:36:35.195Z,25.87
2019-02-21T01:39:04.900Z,27.23
2019-02-21T01:41:33.322Z,21.90
2019-02-21T01:44:01.751Z,27.60
2019-02-21T01:46:30.167Z,27.73
2019-02-21T01:48:59.526Z,27.23
2019-02-21T01:51:28.063Z,31.43
2019-02-21T01:53:56.492Z,29.77
2019-02-21T01:56:24.921Z,28.30
2019-02-21T01:58:53.351Z,21.80
2019-02-21T02:01:21.771Z,31.27
2019-02-21T02:03:50.207Z,27.87
2019-02-21T02:06:18.647Z,24.97
2019-02-21T02:08:47.414Z,28.90
2019-02-21T02:11:15.835Z,22.30
2019-02-21T02:13:44.266Z,29.30
2019-02-21T02:16:12.703Z,28.90
2019-02-21T02:18:41.134Z,25.73
2019-02-21T02:21:09.554Z,29.27
2019-02-21T02:23:37.988Z,30.00
2019-02-21T02:26:06.418Z,33.00
2019-02-21T02:28:34.900Z,29.00
2019-02-21T02:31:03.361Z,25.93
2019-02-21T02:33:31.797Z,29.50
2019-02-21T02:36:00.220Z,28.50
2019-02-21T02:38:28.650Z,26.93
2019-02-21T02:40:57.080Z,27.17
2019-02-21T02:43:25.513Z,25.10
2019-02-21T02:45:53.947Z,24.20
2019-02-21T02:48:22.388Z,23.63
2019-02-21T02:50:50.809Z,25.57
2019-02-21T02:53:19.231Z,25.60
2019-02-21T02:55:47.705Z,25.23
2019-02-21T02:58:16.184Z,32.03
2019-02-21T03:00:44.663Z,26.73
2019-02-21T03:03:13.225Z,25.13
2019-02-21T03:05:41.667Z,29.83
2019-02-21T03:08:10.110Z,26.97
2019-02-21T03:10:38.612Z,29.13
2019-02-21T03:13:07.040Z,26.27
2019-02-21T03:15:35.490Z,27.30
2019-02-21T03:18:03.907Z,34.87
2019-02-21T03:20:32.335Z,28.53
2019-02-21T03:23:00.758Z,35.70
2019-02-21T03:25:29.207Z,25.07
2019-02-21T03:27:57.637Z,30.00
2019-02-21T03:30:26.070Z,29.63
2019-02-21T03:32:54.492Z,31.80
2019-02-21T03:35:23.158Z,29.73
2019-02-21T03:37:51.660Z,31.93
2019-02-21T03:40:20.167Z,29.00
2019-02-21T03:42:48.603Z,31.70
2019-02-21T03:45:17.575Z,24.40
2019-02-21T03:47:45.992Z,32.83
2019-02-21T03:50:14.498Z,29.87
2019-02-21T03:52:42.913Z,28.00
2019-02-21T03:55:11.344Z,28.03
2019-02-21T03:57:39.781Z,31.43
2019-02-21T04:00:30.008Z,30.67
2019-02-21T04:02:58.432Z,31.43
2019-02-21T04:05:26.873Z,34.37
2019-02-21T04:07:55.282Z,32.07
2019-02-21T04:10:23.717Z,37.47
2019-02-21T04:12:52.157Z,35.10
2019-02-21T04:15:20.594Z,34.23
2019-02-21T04:17:49.018Z,27.37
2019-02-21T04:20:17.776Z,27.97
2019-02-21T04:22:46.208Z,31.33
2019-02-21T04:25:14.651Z,31.90
2019-02-21T04:27:43.154Z,32.07
2019-02-21T04:30:11.688Z,33.30
2019-02-21T04:32:40.107Z,29.43
2019-02-21T04:35:08.621Z,31.90
2019-02-21T04:37:37.037Z,34.43
2019-02-21T04:40:06.516Z,29.80
2019-02-21T04:42:34.940Z,32.57
2019-02-21T04:45:03.561Z,32.07
2019-02-21T04:47:32.044Z,40.57
2019-02-21T04:50:00.634Z,30.90
2019-02-21T04:52:29.126Z,30.70
2019-02-21T04:54:57.589Z,35.17
2019-02-21T04:57:26.031Z,29.87
2019-02-21T04:59:54.450Z,31.73
2019-02-21T05:02:28.900Z,38.23
2019-02-21T05:04:53.044Z,34.63
2019-02-21T05:07:21.476Z,35.40
2019-02-21T05:10:09.251Z,32.63
2019-02-21T05:12:37.687Z,30.93
2019-02-21T05:15:06.283Z,37.50
2019-02-21T05:17:34.714Z,28.43
2019-02-21T05:20:03.615Z,32.60
2019-02-21T05:22:32.130Z,33.20
2019-02-21T05:25:00.563Z,31.70
2019-02-21T05:27:30.649Z,33.90
2019-02-21T05:29:59.083Z,33.00
2019-02-21T05:32:45.339Z,37.17
2019-02-21T05:35:15.400Z,29.17
2019-02-21T05:38:01.951Z,39.43
2019-02-21T05:40:32.011Z,33.63
2019-02-21T05:43:14.336Z,33.17
2019-02-21T05:45:53.189Z,38.77
2019-02-21T05:48:23.251Z,41.40
2019-02-21T05:53:45.423Z,36.90
2019-02-21T05:56:18.188Z,42.07
2019-02-21T05:58:51.139Z,34.70
2019-02-21T06:01:21.235Z,37.23
2019-02-21T06:03:57.181Z,37.63
2019-02-21T06:06:30.168Z,36.77
2019-02-21T06:09:03.200Z,35.63
2019-02-21T06:11:48.397Z,36.00
2019-02-21T06:14:34.934Z,35.90
2019-02-21T06:17:10.744Z,31.50
2019-02-21T06:20:09.128Z,31.27
2019-02-21T06:22:39.201Z,33.33
2019-02-21T06:25:09.280Z,39.87
2019-02-21T06:27:39.356Z,34.83
2019-02-21T06:30:16.111Z,34.97
2019-02-21T06:33:05.320Z,43.47
2019-02-21T06:35:34.107Z,32.77
2019-02-21T06:38:02.543Z,35.77
2019-02-21T06:40:30.979Z,36.57
2019-02-21T06:42:59.405Z,38.23
2019-02-21T06:45:27.844Z,35.47
2019-02-21T06:47:56.262Z,36.10
2019-02-21T06:50:27.065Z,40.40
2019-02-21T06:52:54.844Z,35.60
2019-02-21T06:55:23.298Z,34.13
2019-02-21T06:57:51.733Z,32.77
2019-02-21T07:00:20.172Z,34.07
2019-02-21T07:02:48.601Z,34.97
2019-02-21T07:05:17.956Z,32.97
2019-02-21T07:07:46.390Z,40.40
2019-02-21T07:10:14.823Z,40.67
2019-02-21T07:12:43.262Z,38.17
2019-02-21T07:15:11.687Z,35.53
2019-02-21T07:17:48.901Z,32.27
2019-02-21T07:20:12.742Z,35.97
2019-02-21T07:22:40.446Z,34.50
2019-02-21T07:25:10.537Z,35.73
2019-02-21T07:27:38.956Z,39.20
2019-02-21T07:30:19.476Z,42.73
2019-02-21T07:32:40.019Z,33.33
2019-02-21T07:35:08.455Z,39.13
2019-02-21T07:37:36.879Z,37.90
2019-02-21T07:40:06.655Z,40.17
2019-02-21T07:42:35.079Z,35.57
2019-02-21T07:45:03.649Z,33.83
2019-02-21T07:47:32.083Z,39.70
2019-02-21T07:50:00.569Z,36.30
2019-02-21T07:52:29.044Z,36.50
2019-02-21T07:55:01.895Z,32.40
2019-02-21T07:57:27.647Z,35.57
2019-02-21T07:59:56.073Z,38.23
2019-02-21T08:02:24.562Z,33.53
2019-02-21T08:04:53.049Z,36.73
2019-02-21T08:07:21.535Z,39.10
2019-02-21T08:09:49.964Z,38.67
2019-02-21T08:12:18.430Z,39.97
2019-02-21T08:14:46.922Z,37.83
2019-02-21T08:17:16.308Z,40.43
2019-02-21T08:19:44.886Z,39.37
2019-02-21T08:22:32.656Z,33.00
2019-02-21T08:25:01.081Z,36.73
2019-02-21T08:27:29.520Z,37.37
2019-02-21T08:29:57.949Z,30.92
2019-02-21T08:32:28.027Z,31.87
2019-02-21T08:34:56.458Z,33.90
2019-02-21T08:37:24.896Z,34.43
2019-02-21T08:39:53.333Z,38.63
2019-02-21T08:42:21.763Z,31.87
2019-02-21T08:44:50.194Z,36.07
2019-02-21T08:47:18.620Z,33.07
2019-02-21T08:49:47.047Z,32.37
2019-02-21T08:52:15.479Z,35.30
2019-02-21T08:54:43.911Z,35.10
2019-02-21T08:57:12.348Z,37.10
2019-02-21T08:59:42.387Z,30.70
2019-02-21T09:02:10.906Z,32.10
2019-02-21T09:04:39.341Z,36.27
2019-02-21T09:07:07.794Z,32.97
2019-02-21T09:09:36.240Z,38.33
2019-02-21T09:12:05.679Z,35.73
2019-02-21T09:14:34.394Z,35.97
2019-02-21T09:17:02.848Z,33.77
2019-02-21T09:19:31.304Z,33.50
2019-02-21T09:21:59.746Z,39.03
2019-02-21T09:24:38.427Z,32.37
2019-02-21T09:27:00.257Z,36.03
2019-02-21T09:29:28.490Z,33.07
2019-02-21T09:31:56.944Z,32.90
2019-02-21T09:34:25.359Z,37.50
2019-02-21T09:36:53.816Z,36.73
2019-02-21T09:39:22.292Z,36.77
2019-02-21T09:41:50.847Z,32.73
2019-02-21T09:44:19.279Z,34.20
2019-02-21T09:46:48.418Z,37.37
2019-02-21T09:49:16.848Z,32.20
2019-02-21T09:51:45.378Z,34.33
2019-02-21T09:54:13.803Z,37.90
2019-02-21T09:56:52.096Z,32.80
2019-02-21T09:59:12.409Z,39.33
2019-02-21T10:01:40.845Z,42.03
2019-02-21T10:04:09.366Z,32.10
2019-02-21T10:06:37.874Z,33.13
2019-02-21T10:09:06.478Z,36.57
2019-02-21T10:11:34.899Z,32.77
2019-02-21T10:14:03.335Z,35.47
2019-02-21T10:16:31.775Z,35.80
2019-02-21T10:19:00.213Z,33.10
2019-02-21T10:21:28.649Z,33.67
2019-02-21T10:23:57.101Z,44.42
2019-02-21T10:26:25.611Z,36.37
2019-02-21T10:28:54.125Z,36.80
2019-02-21T10:31:22.567Z,38.27
2019-02-21T10:33:51.067Z,35.27
2019-02-21T10:36:19.494Z,33.27
2019-02-21T10:38:48.574Z,35.30
2019-02-21T10:41:17.023Z,37.77
2019-02-21T10:43:45.505Z,40.27
2019-02-21T10:46:13.976Z,37.97
2019-02-21T10:48:42.415Z,39.43
2019-02-21T10:51:10.835Z,42.37
2019-02-21T10:53:39.321Z,39.60
2019-02-21T10:56:08.134Z,38.50
2019-02-21T10:58:36.567Z,42.73
2019-02-21T11:01:05.345Z,39.97
2019-02-21T11:03:33.801Z,39.60
2019-02-21T11:06:02.241Z,41.80
2019-02-21T11:08:30.691Z,41.57
2019-02-21T11:10:59.191Z,40.17
2019-02-21T11:13:27.619Z,37.20
2019-02-21T11:15:56.047Z,37.50
2019-02-21T11:18:24.491Z,39.23
2019-02-21T11:20:52.918Z,41.80
2019-02-21T11:23:21.414Z,36.93
2019-02-21T11:25:49.847Z,37.20
2019-02-21T11:28:18.581Z,37.67
2019-02-21T11:30:47.018Z,36.60
2019-02-21T11:33:15.542Z,34.70
2019-02-21T11:35:43.967Z,38.87
2019-02-21T11:38:12.413Z,35.60
2019-02-21T11:40:40.836Z,39.80
2019-02-21T11:43:09.279Z,36.53
2019-02-21T11:45:37.783Z,33.27
2019-02-21T11:48:09.005Z,36.83
2019-02-21T11:50:36.555Z,40.38
2019-02-21T11:53:05.056Z,32.80
2019-02-21T11:55:33.481Z,34.37
2019-02-21T11:58:01.929Z,37.17
2019-02-21T12:00:30.995Z,34.37
2019-02-21T12:02:59.445Z,32.30
2019-02-21T12:05:31.461Z,37.10
2019-02-21T12:07:58.023Z,32.67
2019-02-21T12:10:26.463Z,29.47
2019-02-21T12:12:54.917Z,34.05
2019-02-21T12:15:23.412Z,32.03
2019-02-21T12:17:51.841Z,29.03
2019-02-21T12:20:20.641Z,30.47
2019-02-21T12:22:49.231Z,35.10
2019-02-21T12:25:21.029Z,34.90
2019-02-21T12:27:49.455Z,27.87
2019-02-21T12:30:19.621Z,26.63
2019-02-21T12:32:48.788Z,29.03
2019-02-21T12:35:28.709Z,28.63
2019-02-21T12:37:47.395Z,23.70
2019-02-21T12:40:21.127Z,24.63
2019-02-21T12:42:49.554Z,25.43
2019-02-21T12:45:24.062Z,25.17
2019-02-21T12:47:54.039Z,28.47
2019-02-21T12:50:22.823Z,36.40
2019-02-21T12:52:51.271Z,25.70
2019-02-21T12:55:28.000Z,27.40
2019-02-21T12:57:49.955Z,24.30
2019-02-21T13:00:19.920Z,24.93
2019-02-21T13:02:48.828Z,25.63
2019-02-21T13:05:17.448Z,27.20
2019-02-21T13:07:46.056Z,28.97
2019-02-21T13:10:22.237Z,23.40
2019-02-21T13:12:50.674Z,21.53
2019-02-21T13:15:19.124Z,29.37
2019-02-21T13:17:47.624Z,23.83
2019-02-21T13:20:16.068Z,23.93
2019-02-21T13:22:44.495Z,25.93
2019-02-21T13:25:15.354Z,22.90
2019-02-21T13:27:43.781Z,23.63
2019-02-21T13:30:14.364Z,23.70
2019-02-21T13:32:42.877Z,23.70
2019-02-21T13:35:11.669Z,21.87
2019-02-21T13:37:40.105Z,26.73
2019-02-21T13:40:16.358Z,21.90
2019-02-21T13:42:44.819Z,16.13
2019-02-21T13:45:36.750Z,19.97
2019-02-21T13:48:05.396Z,19.40
2019-02-21T13:50:33.819Z,17.17
2019-02-21T13:53:02.375Z,16.80
2019-02-21T13:55:30.851Z,18.23
2019-02-21T13:57:59.402Z,18.90
2019-02-21T14:00:27.844Z,20.13
2019-02-21T14:02:56.278Z,21.70
2019-02-21T14:05:24.721Z,16.57
2019-02-21T14:07:53.267Z,18.93
2019-02-21T14:10:21.792Z,16.77
2019-02-21T14:12:50.231Z,16.73
2019-02-21T14:15:26.900Z,18.33
2019-02-21T14:17:55.342Z,17.77
2019-02-21T14:20:23.783Z,16.23
2019-02-21T14:22:52.216Z,17.97
2019-02-21T14:25:20.668Z,16.50
2019-02-21T14:27:49.939Z,14.07
2019-02-21T14:30:20.003Z,15.80
2019-02-21T14:32:48.954Z,13.77
2019-02-21T14:35:17.483Z,16.20
2019-02-21T14:37:45.911Z,21.50
2019-02-21T14:40:15.701Z,16.40
2019-02-21T14:42:44.176Z,15.47
2019-02-21T14:45:17.505Z,14.70
2019-02-21T14:47:45.947Z,13.30
2019-02-21T14:50:14.511Z,21.40
2019-02-21T14:52:42.949Z,12.70
2019-02-21T14:55:17.961Z,12.80
2019-02-21T14:57:46.471Z,13.67
2019-02-21T15:00:22.536Z,12.87
2019-02-21T15:02:50.978Z,11.67
2019-02-21T15:05:19.943Z,10.23
2019-02-21T15:07:49.200Z,12.23
2019-02-21T15:10:18.328Z,10.57
2019-02-21T15:12:47.054Z,12.20
2019-02-21T15:15:18.220Z,11.07
2019-02-21T15:17:46.795Z,9.63
2019-02-21T15:20:16.745Z,11.70
2019-02-21T15:22:45.215Z,9.80
2019-02-21T15:25:13.859Z,9.70
2019-02-21T15:27:42.371Z,12.17
2019-02-21T15:30:19.119Z,9.67
2019-02-21T15:32:48.087Z,7.20
2019-02-21T15:35:19.269Z,11.37
2019-02-21T15:37:46.673Z,10.50
2019-02-21T15:40:15.094Z,9.43
2019-02-21T15:42:43.519Z,9.70
2019-02-21T15:45:22.988Z,10.07
2019-02-21T15:47:47.490Z,14.33
2019-02-21T15:50:16.118Z,12.70
2019-02-21T15:52:45.601Z,15.83
2019-02-21T15:55:16.507Z,12.20
2019-02-21T15:57:44.935Z,15.83
2019-02-21T16:00:15.801Z,14.33
2019-02-21T16:02:44.250Z,16.83
2019-02-21T16:05:12.670Z,17.47
2019-02-21T16:07:41.115Z,17.23
2019-02-21T16:10:12.460Z,20.00
2019-02-21T16:12:41.509Z,19.47
2019-02-21T16:15:16.196Z,16.37
2019-02-21T16:17:44.056Z,17.37
2019-02-21T16:20:14.716Z,18.63
2019-02-21T16:22:43.596Z,20.20
2019-02-21T16:25:19.600Z,22.73
2019-02-21T16:27:48.059Z,19.00
2019-02-21T16:30:16.491Z,25.43
2019-02-21T16:32:44.919Z,18.90
2019-02-21T16:35:14.492Z,20.77
2019-02-21T16:37:42.958Z,19.50
2019-02-21T16:40:13.901Z,20.93
2019-02-21T16:42:42.335Z,20.27
2019-02-21T16:45:12.998Z,20.43
2019-02-21T16:47:41.504Z,19.13
2019-02-21T16:50:14.232Z,21.77
2019-02-21T16:52:43.004Z,20.17
2019-02-21T16:55:22.088Z,22.93
2019-02-21T16:57:50.538Z,23.60
2019-02-21T17:00:22.435Z,22.53
2019-02-21T17:02:50.945Z,20.33
2019-02-21T17:05:19.513Z,21.93
2019-02-21T17:07:47.951Z,21.97
2019-02-21T17:10:17.114Z,26.60
2019-02-21T17:12:45.539Z,24.03
2019-02-21T17:15:15.614Z,20.30
2019-02-21T17:17:44.052Z,24.93
2019-02-21T17:20:23.423Z,24.53
2019-02-21T17:22:51.860Z,20.93
2019-02-21T17:25:20.307Z,24.83
2019-02-21T17:27:50.317Z,20.43
2019-02-21T17:30:20.091Z,21.93
2019-02-21T17:32:49.460Z,25.30
2019-02-21T17:35:18.070Z,22.30
2019-02-21T17:37:46.491Z,22.40
2019-02-21T17:40:24.999Z,27.77
2019-02-21T17:42:53.770Z,23.17
2019-02-21T17:45:22.725Z,24.77
2019-02-21T17:47:51.672Z,22.50
2019-02-21T17:50:20.620Z,23.63
2019-02-21T17:52:49.417Z,24.47
2019-02-21T17:55:18.239Z,30.43
2019-02-21T17:57:46.762Z,23.23
2019-02-21T18:00:21.708Z,26.33
2019-02-21T18:03:14.388Z,24.00
2019-02-21T18:05:42.923Z,23.50
2019-02-21T18:08:11.364Z,24.13
2019-02-21T18:10:39.807Z,27.50
2019-02-21T18:13:08.251Z,23.83
2019-02-21T18:15:36.664Z,24.83
2019-02-21T18:18:05.095Z,26.77
2019-02-21T18:20:33.530Z,26.37
2019-02-21T18:23:01.995Z,25.40
2019-02-21T18:25:39.152Z,23.37
2019-02-21T18:28:07.588Z,25.77
2019-02-21T18:30:36.022Z,27.10
2019-02-21T18:33:04.552Z,25.87
2019-02-21T18:35:33.031Z,26.97
2019-02-21T18:38:01.467Z,29.30
2019-02-21T18:40:29.960Z,24.20
2019-02-21T18:42:58.408Z,28.73
2019-02-21T18:45:26.834Z,27.47
2019-02-21T18:47:55.293Z,29.63
2019-02-21T18:50:23.720Z,27.10
2019-02-21T18:52:52.159Z,26.03
2019-02-21T18:55:20.592Z,26.13
2019-02-21T18:57:49.540Z,25.83
2019-02-21T19:00:23.617Z,27.17
2019-02-21T19:02:52.068Z,28.63
2019-02-21T19:05:21.146Z,29.83
2019-02-21T19:07:58.506Z,29.57
2019-02-21T19:10:20.860Z,33.87
2019-02-21T19:12:49.581Z,29.87
2019-02-21T19:15:20.019Z,31.50
2019-02-21T19:17:48.442Z,29.80
2019-02-21T19:20:20.654Z,32.87
2019-02-21T19:22:49.671Z,32.63
2019-02-21T19:25:18.166Z,29.40
2019-02-21T19:27:46.686Z,29.37
2019-02-21T19:30:33.178Z,36.70
2019-02-21T19:33:01.625Z,31.23
2019-02-21T19:35:30.048Z,34.23
2019-02-21T19:38:09.467Z,31.33
2019-02-21T19:40:28.660Z,36.40
2019-02-21T19:42:57.092Z,36.37
2019-02-21T19:45:26.268Z,37.07
2019-02-21T19:47:54.788Z,37.77
2019-02-21T19:50:23.207Z,40.23
2019-02-21T19:52:51.715Z,38.07
2019-02-21T19:55:20.153Z,38.87
2019-02-21T19:57:49.511Z,42.97
2019-02-21T20:00:29.464Z,37.60
2019-02-21T20:02:57.981Z,37.43
2019-02-21T20:05:26.947Z,33.40
2019-02-21T20:07:55.397Z,41.07
2019-02-21T20:10:24.099Z,42.33
2019-02-21T20:12:52.557Z,48.10
2019-02-21T20:15:20.976Z,42.17
2019-02-21T20:17:49.747Z,39.43
2019-02-21T20:20:20.416Z,41.60
2019-02-21T20:22:49.787Z,44.27
2019-02-21T20:25:18.215Z,43.63
2019-02-21T20:27:46.750Z,42.37
2019-02-21T20:30:19.164Z,47.97
2019-02-21T20:32:47.605Z,46.70
2019-02-21T20:35:16.048Z,47.37
2019-02-21T20:37:44.757Z,45.37
2019-02-21T20:40:13.621Z,49.47
2019-02-21T20:42:42.098Z,50.87
2019-02-21T20:45:14.628Z,54.40
2019-02-21T20:47:43.069Z,54.13
2019-02-21T20:50:12.437Z,54.83
2019-02-21T20:52:41.060Z,54.63
2019-02-21T20:55:11.505Z,57.40
2019-02-21T20:57:39.944Z,60.00
2019-02-21T21:00:29.223Z,68.37
2019-02-21T21:02:58.010Z,62.23
2019-02-21T21:05:26.596Z,68.03
2019-02-21T21:07:55.023Z,68.53
2019-02-21T21:10:23.470Z,77.00
2019-02-21T21:12:53.068Z,76.57
2019-02-21T21:15:21.575Z,76.63
2019-02-21T21:17:50.008Z,78.93
2019-02-21T21:20:18.886Z,84.30
2019-02-21T21:22:47.356Z,90.90
2019-02-21T21:25:18.961Z,91.87
2019-02-21T21:27:47.418Z,92.07
2019-02-21T21:30:20.127Z,92.23
2019-02-21T21:32:48.547Z,96.00
2019-02-21T21:35:16.987Z,97.30
2019-02-21T21:37:45.408Z,94.80
2019-02-21T21:40:18.342Z,104.63
2019-02-21T21:42:46.763Z,97.03
2019-02-21T21:45:17.623Z,105.87
2019-02-21T21:47:46.048Z,98.20
2019-02-21T21:50:33.831Z,101.37
2019-02-21T21:53:02.415Z,95.90
2019-02-21T21:55:30.966Z,99.20
2019-02-21T21:57:59.383Z,96.40
2019-02-21T22:00:27.835Z,96.10
2019-02-21T22:02:56.270Z,102.77
2019-02-21T22:05:24.702Z,98.70
2019-02-21T22:07:53.149Z,104.77
2019-02-21T22:10:21.637Z,100.37
2019-02-21T22:12:50.063Z,107.10
2019-02-21T22:15:22.574Z,112.57
2019-02-21T22:17:51.007Z,103.53
2019-02-21T22:20:20.050Z,104.43
2019-02-21T22:22:48.472Z,113.10
2019-02-21T22:25:16.907Z,106.87
2019-02-21T22:27:45.351Z,106.77
2019-02-21T22:30:18.380Z,111.97
2019-02-21T22:33:06.161Z,104.13
2019-02-21T22:35:34.604Z,109.78
2019-02-21T22:38:03.059Z,109.73
2019-02-21T22:40:31.559Z,105.33
2019-02-21T22:43:00.012Z,105.10
2019-02-21T22:45:28.491Z,111.77
2019-02-21T22:47:56.964Z,115.07
2019-02-21T22:50:26.900Z,109.27
2019-02-21T22:52:55.482Z,110.57
2019-02-21T22:55:23.955Z,113.93
2019-02-21T22:57:52.387Z,102.17
2019-02-21T23:00:30.975Z,96.97
2019-02-21T23:03:00.255Z,108.27
2019-02-21T23:05:51.665Z,111.67
2019-02-21T23:08:23.253Z,101.87
2019-02-21T23:10:51.703Z,104.10
2019-02-21T23:13:20.271Z,109.50
2019-02-21T23:15:48.703Z,92.77
2019-02-21T23:18:17.131Z,95.10
2019-02-21T23:20:45.563Z,99.27
2019-02-21T23:23:13.999Z,86.07
2019-02-21T23:25:42.427Z,90.40
2019-02-21T23:28:10.855Z,88.80
2019-02-21T23:30:39.284Z,81.67
2019-02-21T23:33:07.716Z,83.37
2019-02-21T23:35:36.154Z,85.87
2019-02-21T23:38:04.678Z,74.50
2019-02-21T23:40:33.130Z,79.30
2019-02-21T23:43:01.575Z,74.43
2019-02-21T23:45:30.017Z,69.53
2019-02-21T23:47:58.526Z,75.20
2019-02-21T23:50:26.956Z,79.40
2019-02-21T23:52:55.402Z,74.77
2019-02-21T23:55:23.831Z,82.03
2019-02-21T23:57:52.655Z,87.40
